GRL2647 BGBW-BGKK
Flight info
| Callsign | GRL2647 |
|---|---|
| Flight time | N/A |
| Altitude | 13000 |
| Route | DCT GOLUG DCT PORSU DCT KAYAK DCT LUNAL DCT |
| Aircraft | C208/L-SDFGR/C |
Departure
| Time | N/A |
|---|---|
| Airport | Narsarsuaq Airport (BGBW) |
Arrival
| Time | 2026-04-30 13:55 |
|---|---|
| Airport | Kulusuk Airport (BGKK) |
| Time | Latitude | Longitude | Altitude | Speed | Heading |
|---|---|---|---|---|---|
| 2026-04-30 13:09 | 63.92166 | -40.60446 | 12869 ft | 199 kts | 33° |
| 2026-04-30 13:09 | 63.93211 | -40.58383 | 12877 ft | 199 kts | 33° |
| 2026-04-30 13:09 | 63.94253 | -40.56320 | 12879 ft | 199 kts | 33° |
| 2026-04-30 13:10 | 63.95295 | -40.54254 | 12872 ft | 199 kts | 33° |
| 2026-04-30 13:10 | 63.96340 | -40.52179 | 12879 ft | 199 kts | 33° |
| 2026-04-30 13:10 | 63.97383 | -40.50107 | 12867 ft | 199 kts | 33° |
| 2026-04-30 13:10 | 63.98426 | -40.48033 | 12867 ft | 199 kts | 33° |
| 2026-04-30 13:11 | 63.99456 | -40.45984 | 12875 ft | 199 kts | 33° |
| 2026-04-30 13:11 | 64.00497 | -40.43910 | 12870 ft | 199 kts | 33° |
| 2026-04-30 13:11 | 64.01542 | -40.41825 | 12873 ft | 199 kts | 33° |
| 2026-04-30 13:11 | 64.02581 | -40.39749 | 12872 ft | 199 kts | 33° |
| 2026-04-30 13:12 | 64.03621 | -40.37672 | 12868 ft | 199 kts | 33° |
| 2026-04-30 13:12 | 64.04663 | -40.35589 | 12871 ft | 199 kts | 33° |
| 2026-04-30 13:12 | 64.05702 | -40.33508 | 12876 ft | 199 kts | 33° |
| 2026-04-30 13:13 | 64.07787 | -40.29325 | 12863 ft | 199 kts | 33° |
| 2026-04-30 13:13 | 64.08827 | -40.27235 | 12863 ft | 199 kts | 33° |
| 2026-04-30 13:13 | 64.10909 | -40.23047 | 12866 ft | 199 kts | 33° |
| 2026-04-30 13:14 | 64.11932 | -40.20984 | 12865 ft | 200 kts | 34° |
| 2026-04-30 13:14 | 64.12976 | -40.18875 | 12869 ft | 199 kts | 34° |
| 2026-04-30 13:14 | 64.15043 | -40.14701 | 12865 ft | 198 kts | 34° |
| 2026-04-30 13:15 | 64.16075 | -40.12615 | 12874 ft | 198 kts | 34° |
| 2026-04-30 13:15 | 64.18134 | -40.08440 | 12872 ft | 197 kts | 34° |
| 2026-04-30 13:15 | 64.19163 | -40.06352 | 12876 ft | 197 kts | 34° |
| 2026-04-30 13:16 | 64.20187 | -40.04270 | 12873 ft | 197 kts | 34° |
| 2026-04-30 13:16 | 64.21220 | -40.02170 | 12866 ft | 197 kts | 34° |
| 2026-04-30 13:16 | 64.22234 | -40.00107 | 12868 ft | 197 kts | 34° |
| 2026-04-30 13:17 | 64.24414 | -39.96409 | 12856 ft | 194 kts | 27° |
| 2026-04-30 13:17 | 64.25512 | -39.94597 | 12856 ft | 194 kts | 27° |
| 2026-04-30 13:17 | 64.27708 | -39.90965 | 12854 ft | 194 kts | 28° |
| 2026-04-30 13:18 | 64.28806 | -39.89147 | 12858 ft | 194 kts | 27° |
| 2026-04-30 13:18 | 64.31000 | -39.85507 | 12851 ft | 194 kts | 28° |
| 2026-04-30 13:18 | 64.32097 | -39.83685 | 12857 ft | 194 kts | 28° |
| 2026-04-30 13:19 | 64.33195 | -39.81861 | 12854 ft | 194 kts | 28° |
| 2026-04-30 13:19 | 64.34277 | -39.80060 | 12854 ft | 194 kts | 28° |
| 2026-04-30 13:19 | 64.35372 | -39.78237 | 12861 ft | 194 kts | 28° |
| 2026-04-30 13:19 | 64.36468 | -39.76408 | 12859 ft | 194 kts | 28° |
| 2026-04-30 13:20 | 64.37567 | -39.74573 | 12852 ft | 194 kts | 28° |
| 2026-04-30 13:20 | 64.38662 | -39.72744 | 12856 ft | 194 kts | 28° |
| 2026-04-30 13:20 | 64.39759 | -39.70909 | 12856 ft | 194 kts | 29° |
| 2026-04-30 13:20 | 64.40851 | -39.69081 | 12857 ft | 193 kts | 29° |
| 2026-04-30 13:21 | 64.41938 | -39.67260 | 12859 ft | 193 kts | 28° |
| 2026-04-30 13:21 | 64.43029 | -39.65429 | 12859 ft | 193 kts | 28° |
| 2026-04-30 13:21 | 64.44119 | -39.63597 | 12859 ft | 193 kts | 28° |
| 2026-04-30 13:22 | 64.46280 | -39.59964 | 12859 ft | 193 kts | 29° |
| 2026-04-30 13:22 | 64.47368 | -39.58132 | 12859 ft | 193 kts | 29° |
| 2026-04-30 13:22 | 64.49539 | -39.54469 | 12848 ft | 193 kts | 28° |
| 2026-04-30 13:23 | 64.50627 | -39.52630 | 12849 ft | 193 kts | 29° |
| 2026-04-30 13:23 | 64.52799 | -39.48957 | 12849 ft | 193 kts | 29° |
| 2026-04-30 13:24 | 64.54970 | -39.45276 | 12848 ft | 193 kts | 29° |
| 2026-04-30 13:24 | 64.57142 | -39.41585 | 12848 ft | 193 kts | 29° |
| 2026-04-30 13:25 | 64.59315 | -39.37888 | 12850 ft | 193 kts | 29° |
| 2026-04-30 13:25 | 64.61488 | -39.34183 | 12842 ft | 195 kts | 29° |
| 2026-04-30 13:26 | 64.64790 | -39.28536 | 12840 ft | 198 kts | 29° |
| 2026-04-30 13:26 | 64.67001 | -39.24740 | 12840 ft | 195 kts | 31° |
| 2026-04-30 13:27 | 64.69179 | -39.21000 | 12842 ft | 193 kts | 31° |
| 2026-04-30 13:28 | 64.72417 | -39.15425 | 12833 ft | 192 kts | 31° |
| 2026-04-30 13:28 | 64.74568 | -39.11711 | 12834 ft | 192 kts | 31° |
| 2026-04-30 13:28 | 64.75640 | -39.09856 | 12834 ft | 192 kts | 31° |
| 2026-04-30 13:29 | 64.77790 | -39.06133 | 12834 ft | 192 kts | 31° |
| 2026-04-30 13:29 | 64.79932 | -39.02416 | 12834 ft | 192 kts | 31° |
| 2026-04-30 13:30 | 64.83144 | -38.96828 | 12829 ft | 192 kts | 31° |
| 2026-04-30 13:31 | 64.85288 | -38.93089 | 12826 ft | 192 kts | 31° |
| 2026-04-30 13:31 | 64.88504 | -38.87464 | 12827 ft | 192 kts | 31° |
| 2026-04-30 13:32 | 64.90645 | -38.83712 | 12827 ft | 192 kts | 31° |
| 2026-04-30 13:32 | 64.92777 | -38.79965 | 12824 ft | 192 kts | 32° |
| 2026-04-30 13:33 | 64.94919 | -38.76193 | 12826 ft | 192 kts | 32° |
| 2026-04-30 13:33 | 64.97060 | -38.72419 | 12826 ft | 192 kts | 32° |
| 2026-04-30 13:34 | 64.98132 | -38.70525 | 12826 ft | 192 kts | 32° |
| 2026-04-30 13:34 | 65.01324 | -38.64872 | 12826 ft | 192 kts | 32° |
| 2026-04-30 13:35 | 65.02394 | -38.62974 | 12826 ft | 192 kts | 32° |
| 2026-04-30 13:35 | 65.04530 | -38.59181 | 12818 ft | 192 kts | 32° |
| 2026-04-30 13:36 | 65.06664 | -38.55382 | 12821 ft | 192 kts | 32° |
| 2026-04-30 13:36 | 65.07730 | -38.53481 | 12821 ft | 192 kts | 32° |
| 2026-04-30 13:36 | 65.09858 | -38.49682 | 12822 ft | 192 kts | 32° |
| 2026-04-30 13:37 | 65.10923 | -38.47777 | 12821 ft | 192 kts | 32° |
| 2026-04-30 13:37 | 65.13054 | -38.43960 | 12821 ft | 192 kts | 32° |
| 2026-04-30 13:38 | 65.15182 | -38.40139 | 12819 ft | 192 kts | 32° |
| 2026-04-30 13:38 | 65.16250 | -38.38220 | 12804 ft | 192 kts | 32° |
| 2026-04-30 13:38 | 65.18438 | -38.34277 | 12298 ft | 199 kts | 32° |
| 2026-04-30 13:39 | 65.20635 | -38.30308 | 11788 ft | 198 kts | 32° |
| 2026-04-30 13:39 | 65.22836 | -38.26323 | 11253 ft | 192 kts | 32° |
| 2026-04-30 13:40 | 65.23865 | -38.24448 | 11011 ft | 182 kts | 32° |
| 2026-04-30 13:40 | 65.24867 | -38.22637 | 10768 ft | 178 kts | 31° |
| 2026-04-30 13:40 | 65.25840 | -38.20879 | 10641 ft | 171 kts | 31° |
| 2026-04-30 13:40 | 65.26783 | -38.19182 | 10485 ft | 170 kts | 31° |
| 2026-04-30 13:41 | 65.27739 | -38.17457 | 10262 ft | 175 kts | 31° |
| 2026-04-30 13:41 | 65.28717 | -38.15677 | 10019 ft | 178 kts | 32° |
| 2026-04-30 13:41 | 65.29704 | -38.13876 | 9773 ft | 179 kts | 32° |
| 2026-04-30 13:41 | 65.30689 | -38.12073 | 9516 ft | 175 kts | 32° |
| 2026-04-30 13:42 | 65.31640 | -38.10332 | 9281 ft | 170 kts | 32° |
| 2026-04-30 13:42 | 65.32574 | -38.08625 | 9053 ft | 167 kts | 32° |
| 2026-04-30 13:42 | 65.34360 | -38.05357 | 8607 ft | 159 kts | 32° |
| 2026-04-30 13:43 | 65.35247 | -38.03740 | 8388 ft | 161 kts | 32° |
| 2026-04-30 13:43 | 65.36136 | -38.02110 | 8166 ft | 162 kts | 32° |
| 2026-04-30 13:43 | 65.37028 | -38.00474 | 7944 ft | 163 kts | 32° |
| 2026-04-30 13:43 | 65.37927 | -37.98819 | 7732 ft | 162 kts | 32° |
| 2026-04-30 13:44 | 65.38793 | -37.97224 | 7703 ft | 154 kts | 32° |
| 2026-04-30 13:44 | 65.39662 | -37.95634 | 7511 ft | 160 kts | 32° |
| 2026-04-30 13:44 | 65.40560 | -37.93980 | 7286 ft | 164 kts | 33° |
| 2026-04-30 13:44 | 65.41472 | -37.92296 | 7058 ft | 167 kts | 33° |
| 2026-04-30 13:45 | 65.43312 | -37.88896 | 6604 ft | 168 kts | 33° |
| 2026-04-30 13:45 | 65.44239 | -37.87181 | 6374 ft | 168 kts | 33° |
| 2026-04-30 13:45 | 65.45164 | -37.85465 | 6138 ft | 166 kts | 34° |
| 2026-04-30 13:46 | 65.46064 | -37.83796 | 5908 ft | 162 kts | 34° |
| 2026-04-30 13:46 | 65.46951 | -37.82151 | 5691 ft | 160 kts | 33° |
| 2026-04-30 13:46 | 65.47833 | -37.80516 | 5466 ft | 159 kts | 33° |
| 2026-04-30 13:46 | 65.48707 | -37.78895 | 5250 ft | 158 kts | 33° |
| 2026-04-30 13:47 | 65.49545 | -37.77197 | 5034 ft | 160 kts | 45° |
| 2026-04-30 13:47 | 65.50099 | -37.74846 | 4836 ft | 162 kts | 63° |
| 2026-04-30 13:47 | 65.50541 | -37.72355 | 4631 ft | 161 kts | 63° |
| 2026-04-30 13:47 | 65.50983 | -37.69900 | 4423 ft | 157 kts | 63° |
| 2026-04-30 13:48 | 65.51413 | -37.67511 | 4231 ft | 152 kts | 62° |
| 2026-04-30 13:48 | 65.51829 | -37.65197 | 4042 ft | 149 kts | 63° |
| 2026-04-30 13:48 | 65.52236 | -37.62937 | 3857 ft | 146 kts | 63° |
| 2026-04-30 13:48 | 65.52632 | -37.60731 | 3678 ft | 144 kts | 62° |
| 2026-04-30 13:49 | 65.53029 | -37.58519 | 3498 ft | 143 kts | 63° |
| 2026-04-30 13:49 | 65.53413 | -37.56372 | 3406 ft | 137 kts | 62° |
| 2026-04-30 13:49 | 65.53784 | -37.54299 | 3306 ft | 133 kts | 63° |
| 2026-04-30 13:49 | 65.54147 | -37.52275 | 3214 ft | 130 kts | 62° |
| 2026-04-30 13:50 | 65.54502 | -37.50283 | 3124 ft | 129 kts | 62° |
| 2026-04-30 13:50 | 65.55257 | -37.46069 | 2906 ft | 142 kts | 63° |
| 2026-04-30 13:50 | 65.55649 | -37.43861 | 2800 ft | 145 kts | 63° |
| 2026-04-30 13:51 | 65.55913 | -37.42374 | 2732 ft | 145 kts | 63° |
| 2026-04-30 13:51 | 65.56148 | -37.40032 | 2709 ft | 139 kts | 81° |
| 2026-04-30 13:51 | 65.56230 | -37.37947 | 2542 ft | 113 kts | 79° |
| 2026-04-30 13:51 | 65.56318 | -37.36025 | 2376 ft | 115 kts | 78° |
| 2026-04-30 13:52 | 65.56407 | -37.34115 | 2182 ft | 114 kts | 79° |
| 2026-04-30 13:52 | 65.56492 | -37.32212 | 1997 ft | 112 kts | 79° |
| 2026-04-30 13:52 | 65.56574 | -37.30399 | 1814 ft | 108 kts | 79° |
| 2026-04-30 13:52 | 65.56652 | -37.28616 | 1638 ft | 105 kts | 80° |
| 2026-04-30 13:53 | 65.56726 | -37.26918 | 1471 ft | 98 kts | 79° |
| 2026-04-30 13:53 | 65.56797 | -37.25332 | 1309 ft | 92 kts | 79° |
| 2026-04-30 13:53 | 65.56848 | -37.23837 | 1176 ft | 89 kts | 83° |
| 2026-04-30 13:53 | 65.56883 | -37.22321 | 1077 ft | 92 kts | 83° |
| 2026-04-30 13:54 | 65.56947 | -37.20745 | 961 ft | 93 kts | 80° |
| 2026-04-30 13:54 | 65.57022 | -37.19214 | 783 ft | 90 kts | 84° |
| 2026-04-30 13:54 | 65.57091 | -37.17715 | 581 ft | 89 kts | 82° |
| 2026-04-30 13:54 | 65.57170 | -37.16270 | 370 ft | 86 kts | 84° |
| 2026-04-30 13:55 | 65.57231 | -37.14853 | 229 ft | 83 kts | 84° |
| 2026-04-30 13:55 | 65.57301 | -37.13494 | 124 ft | 79 kts | 83° |
| 2026-04-30 13:55 | 65.57351 | -37.12406 | 108 ft | 38 kts | 84° |
| 2026-04-30 13:55 | 65.57373 | -37.11888 | 106 ft | 21 kts | 85° |
| 2026-04-30 13:56 | 65.57387 | -37.11535 | 103 ft | 11 kts | 83° |
| 2026-04-30 13:56 | 65.57405 | -37.11273 | 101 ft | 24 kts | 79° |
| 2026-04-30 13:56 | 65.57391 | -37.11238 | 101 ft | 20 kts | 262° |
| 2026-04-30 13:56 | 65.57374 | -37.11681 | 105 ft | 24 kts | 265° |
| 2026-04-30 13:57 | 65.57355 | -37.12057 | 106 ft | 27 kts | 263° |
| 2026-04-30 13:57 | 65.57340 | -37.12390 | 108 ft | 24 kts | 273° |
| 2026-04-30 13:57 | 65.57361 | -37.12764 | 109 ft | 20 kts | 265° |
| 2026-04-30 13:57 | 65.57363 | -37.12978 | 109 ft | 15 kts | 320° |
| 2026-04-30 13:58 | 65.57384 | -37.13258 | 111 ft | 16 kts | 255° |
| 2026-04-30 13:58 | 65.57336 | -37.13572 | 112 ft | 0 kts | 244° |